sensor_id;sensor_type;location;lat;lon;timestamp;P1;durP1;ratioP1;P2;durP2;ratioP2
9228;SDS011;4649;42.644;23.284;2023-04-24T00:14:20;6.07;;;5.17;;
9228;SDS011;4649;42.644;23.284;2023-04-24T00:17:06;6.30;;;5.90;;
9228;SDS011;4649;42.644;23.284;2023-04-24T00:20:16;5.70;;;5.33;;
9228;SDS011;4649;42.644;23.284;2023-04-24T00:23:22;5.53;;;5.20;;
9228;SDS011;4649;42.644;23.284;2023-04-24T00:26:15;6.33;;;5.83;;
9228;SDS011;4649;42.644;23.284;2023-04-24T00:38:00;6.73;;;6.13;;
9228;SDS011;4649;42.644;23.284;2023-04-24T00:40:46;6.23;;;5.73;;
9228;SDS011;4649;42.644;23.284;2023-04-24T00:43:42;6.93;;;5.60;;
9228;SDS011;4649;42.644;23.284;2023-04-24T00:49:45;6.03;;;5.53;;
9228;SDS011;4649;42.644;23.284;2023-04-24T00:52:59;5.60;;;5.17;;
9228;SDS011;4649;42.644;23.284;2023-04-24T00:55:52;7.03;;;5.60;;
9228;SDS011;4649;42.644;23.284;2023-04-24T01:14:57;6.20;;;5.90;;
9228;SDS011;4649;42.644;23.284;2023-04-24T01:23:30;7.43;;;6.70;;
9228;SDS011;4649;42.644;23.284;2023-04-24T01:27:04;8.23;;;7.40;;
9228;SDS011;4649;42.644;23.284;2023-04-24T01:29:56;8.23;;;7.40;;
9228;SDS011;4649;42.644;23.284;2023-04-24T01:33:04;7.43;;;6.87;;
9228;SDS011;4649;42.644;23.284;2023-04-24T03:09:03;5.80;;;5.03;;
9228;SDS011;4649;42.644;23.284;2023-04-24T03:12:52;7.13;;;5.27;;
9228;SDS011;4649;42.644;23.284;2023-04-24T04:05:06;7.67;;;7.07;;
9228;SDS011;4649;42.644;23.284;2023-04-24T04:07:52;6.20;;;5.80;;
9228;SDS011;4649;42.644;23.284;2023-04-24T04:10:45;6.40;;;6.00;;
9228;SDS011;4649;42.644;23.284;2023-04-24T04:16:35;7.23;;;5.93;;
9228;SDS011;4649;42.644;23.284;2023-04-24T04:19:03;6.50;;;6.10;;
9228;SDS011;4649;42.644;23.284;2023-04-24T04:21:37;5.67;;;5.27;;
9228;SDS011;4649;42.644;23.284;2023-04-24T04:24:04;6.17;;;5.77;;
9228;SDS011;4649;42.644;23.284;2023-04-24T04:26:32;5.87;;;5.33;;
9228;SDS011;4649;42.644;23.284;2023-04-24T04:29:02;6.37;;;5.77;;
9228;SDS011;4649;42.644;23.284;2023-04-24T04:31:30;5.57;;;5.13;;
9228;SDS011;4649;42.644;23.284;2023-04-24T04:34:10;6.50;;;5.77;;
9228;SDS011;4649;42.644;23.284;2023-04-24T04:36:45;11.87;;;6.13;;
9228;SDS011;4649;42.644;23.284;2023-04-24T04:39:12;6.07;;;5.63;;
9228;SDS011;4649;42.644;23.284;2023-04-24T04:41:40;9.77;;;8.90;;
9228;SDS011;4649;42.644;23.284;2023-04-24T04:44:25;5.70;;;5.23;;
9228;SDS011;4649;42.644;23.284;2023-04-24T04:47:39;6.43;;;5.97;;
9228;SDS011;4649;42.644;23.284;2023-04-24T04:50:36;6.43;;;6.03;;
9228;SDS011;4649;42.644;23.284;2023-04-24T04:53:11;8.20;;;5.77;;
9228;SDS011;4649;42.644;23.284;2023-04-24T04:55:42;6.77;;;6.20;;
9228;SDS011;4649;42.644;23.284;2023-04-24T04:58:11;6.33;;;5.83;;
9228;SDS011;4649;42.644;23.284;2023-04-24T05:00:42;7.67;;;6.77;;
9228;SDS011;4649;42.644;23.284;2023-04-24T05:03:09;7.83;;;6.40;;
9228;SDS011;4649;42.644;23.284;2023-04-24T05:05:38;7.90;;;6.70;;
9228;SDS011;4649;42.644;23.284;2023-04-24T05:08:07;6.77;;;6.33;;
9228;SDS011;4649;42.644;23.284;2023-04-24T05:10:34;7.30;;;6.57;;
9228;SDS011;4649;42.644;23.284;2023-04-24T05:13:06;9.27;;;8.57;;
9228;SDS011;4649;42.644;23.284;2023-04-24T05:16:07;7.83;;;7.00;;
9228;SDS011;4649;42.644;23.284;2023-04-24T05:18:50;8.57;;;7.07;;
9228;SDS011;4649;42.644;23.284;2023-04-24T05:21:18;7.67;;;6.57;;
9228;SDS011;4649;42.644;23.284;2023-04-24T05:23:50;8.97;;;8.13;;
9228;SDS011;4649;42.644;23.284;2023-04-24T05:26:22;7.20;;;6.07;;
9228;SDS011;4649;42.644;23.284;2023-04-24T05:28:53;11.80;;;5.90;;
9228;SDS011;4649;42.644;23.284;2023-04-24T05:31:20;6.57;;;6.03;;
9228;SDS011;4649;42.644;23.284;2023-04-24T05:33:47;8.70;;;6.43;;
9228;SDS011;4649;42.644;23.284;2023-04-24T05:36:14;8.67;;;6.40;;
9228;SDS011;4649;42.644;23.284;2023-04-24T05:38:41;5.97;;;5.30;;
9228;SDS011;4649;42.644;23.284;2023-04-24T05:41:09;7.40;;;6.10;;
9228;SDS011;4649;42.644;23.284;2023-04-24T05:43:36;6.00;;;5.50;;
9228;SDS011;4649;42.644;23.284;2023-04-24T05:46:02;5.57;;;5.17;;
9228;SDS011;4649;42.644;23.284;2023-04-24T05:48:29;5.90;;;5.27;;
9228;SDS011;4649;42.644;23.284;2023-04-24T05:50:56;5.23;;;4.90;;
9228;SDS011;4649;42.644;23.284;2023-04-24T05:53:23;5.83;;;5.33;;
9228;SDS011;4649;42.644;23.284;2023-04-24T05:55:50;6.00;;;5.50;;
9228;SDS011;4649;42.644;23.284;2023-04-24T05:58:18;12.97;;;6.03;;
9228;SDS011;4649;42.644;23.284;2023-04-24T06:00:44;11.00;;;6.83;;
9228;SDS011;4649;42.644;23.284;2023-04-24T06:03:11;6.93;;;5.83;;
9228;SDS011;4649;42.644;23.284;2023-04-24T06:05:38;8.13;;;5.70;;
9228;SDS011;4649;42.644;23.284;2023-04-24T06:08:05;6.83;;;6.13;;
9228;SDS011;4649;42.644;23.284;2023-04-24T06:10:32;7.47;;;5.30;;
9228;SDS011;4649;42.644;23.284;2023-04-24T06:12:59;7.53;;;6.80;;
9228;SDS011;4649;42.644;23.284;2023-04-24T06:15:29;6.27;;;5.63;;
9228;SDS011;4649;42.644;23.284;2023-04-24T06:17:58;8.33;;;6.13;;
9228;SDS011;4649;42.644;23.284;2023-04-24T06:20:25;5.03;;;4.73;;
9228;SDS011;4649;42.644;23.284;2023-04-24T06:22:52;8.57;;;5.53;;
9228;SDS011;4649;42.644;23.284;2023-04-24T06:25:19;5.77;;;5.13;;
9228;SDS011;4649;42.644;23.284;2023-04-24T06:27:46;6.33;;;4.63;;
9228;SDS011;4649;42.644;23.284;2023-04-24T06:30:13;9.03;;;5.00;;
9228;SDS011;4649;42.644;23.284;2023-04-24T06:32:41;4.57;;;4.27;;
9228;SDS011;4649;42.644;23.284;2023-04-24T06:35:08;5.70;;;4.47;;
9228;SDS011;4649;42.644;23.284;2023-04-24T06:37:36;4.60;;;4.30;;
9228;SDS011;4649;42.644;23.284;2023-04-24T06:40:03;8.13;;;4.60;;
9228;SDS011;4649;42.644;23.284;2023-04-24T06:42:31;6.63;;;4.90;;
9228;SDS011;4649;42.644;23.284;2023-04-24T06:44:58;9.17;;;5.40;;
9228;SDS011;4649;42.644;23.284;2023-04-24T06:47:25;6.20;;;4.43;;
9228;SDS011;4649;42.644;23.284;2023-04-24T06:49:53;10.73;;;5.13;;
9228;SDS011;4649;42.644;23.284;2023-04-24T06:52:20;5.87;;;5.40;;
9228;SDS011;4649;42.644;23.284;2023-04-24T06:54:47;8.03;;;5.20;;
9228;SDS011;4649;42.644;23.284;2023-04-24T06:57:14;5.87;;;5.17;;
9228;SDS011;4649;42.644;23.284;2023-04-24T06:59:41;5.27;;;4.80;;
9228;SDS011;4649;42.644;23.284;2023-04-24T07:02:08;5.00;;;4.60;;
9228;SDS011;4649;42.644;23.284;2023-04-24T07:04:35;4.77;;;4.17;;
9228;SDS011;4649;42.644;23.284;2023-04-24T07:07:03;9.37;;;4.50;;
9228;SDS011;4649;42.644;23.284;2023-04-24T07:09:31;4.50;;;4.20;;
9228;SDS011;4649;42.644;23.284;2023-04-24T07:12:00;8.07;;;4.67;;
9228;SDS011;4649;42.644;23.284;2023-04-24T07:14:27;5.27;;;4.77;;
9228;SDS011;4649;42.644;23.284;2023-04-24T07:16:53;9.03;;;7.40;;
9228;SDS011;4649;42.644;23.284;2023-04-24T07:19:22;16.97;;;5.47;;
9228;SDS011;4649;42.644;23.284;2023-04-24T07:21:49;5.73;;;5.23;;
9228;SDS011;4649;42.644;23.284;2023-04-24T07:24:19;5.63;;;5.07;;
9228;SDS011;4649;42.644;23.284;2023-04-24T07:26:46;4.27;;;3.90;;
9228;SDS011;4649;42.644;23.284;2023-04-24T07:29:13;7.27;;;3.47;;
9228;SDS011;4649;42.644;23.284;2023-04-24T07:31:42;3.17;;;2.90;;
9228;SDS011;4649;42.644;23.284;2023-04-24T07:34:09;6.73;;;3.70;;
9228;SDS011;4649;42.644;23.284;2023-04-24T07:36:36;3.70;;;3.50;;
9228;SDS011;4649;42.644;23.284;2023-04-24T07:39:04;5.47;;;3.93;;
9228;SDS011;4649;42.644;23.284;2023-04-24T07:41:32;7.60;;;4.60;;
9228;SDS011;4649;42.644;23.284;2023-04-24T07:43:59;9.70;;;4.40;;
9228;SDS011;4649;42.644;23.284;2023-04-24T07:46:26;5.80;;;4.10;;
9228;SDS011;4649;42.644;23.284;2023-04-24T07:48:54;4.10;;;3.90;;
9228;SDS011;4649;42.644;23.284;2023-04-24T07:51:21;5.17;;;4.60;;
9228;SDS011;4649;42.644;23.284;2023-04-24T07:53:48;6.10;;;4.67;;
9228;SDS011;4649;42.644;23.284;2023-04-24T07:56:15;5.00;;;4.60;;
9228;SDS011;4649;42.644;23.284;2023-04-24T07:58:43;7.43;;;5.30;;
9228;SDS011;4649;42.644;23.284;2023-04-24T08:01:17;14.07;;;4.50;;
9228;SDS011;4649;42.644;23.284;2023-04-24T08:03:44;6.50;;;4.47;;
9228;SDS011;4649;42.644;23.284;2023-04-24T08:06:10;7.07;;;5.13;;
9228;SDS011;4649;42.644;23.284;2023-04-24T08:08:38;4.93;;;4.40;;
9228;SDS011;4649;42.644;23.284;2023-04-24T08:11:04;5.83;;;4.93;;
9228;SDS011;4649;42.644;23.284;2023-04-24T08:13:31;27.03;;;5.10;;
9228;SDS011;4649;42.644;23.284;2023-04-24T08:15:59;5.47;;;4.63;;
9228;SDS011;4649;42.644;23.284;2023-04-24T08:18:27;7.97;;;5.00;;
9228;SDS011;4649;42.644;23.284;2023-04-24T08:20:53;5.03;;;4.63;;
9228;SDS011;4649;42.644;23.284;2023-04-24T08:23:21;4.73;;;4.43;;
9228;SDS011;4649;42.644;23.284;2023-04-24T08:25:48;7.73;;;4.60;;
9228;SDS011;4649;42.644;23.284;2023-04-24T08:28:15;6.17;;;4.43;;
9228;SDS011;4649;42.644;23.284;2023-04-24T08:30:45;6.57;;;4.40;;
9228;SDS011;4649;42.644;23.284;2023-04-24T08:33:13;4.30;;;4.10;;
9228;SDS011;4649;42.644;23.284;2023-04-24T08:35:40;4.97;;;4.57;;
9228;SDS011;4649;42.644;23.284;2023-04-24T08:38:07;10.90;;;4.63;;
9228;SDS011;4649;42.644;23.284;2023-04-24T08:40:34;8.23;;;4.47;;
9228;SDS011;4649;42.644;23.284;2023-04-24T08:43:01;6.27;;;4.20;;
9228;SDS011;4649;42.644;23.284;2023-04-24T08:45:29;4.50;;;4.20;;
9228;SDS011;4649;42.644;23.284;2023-04-24T08:47:56;4.80;;;4.50;;
9228;SDS011;4649;42.644;23.284;2023-04-24T08:50:26;5.00;;;4.60;;
9228;SDS011;4649;42.644;23.284;2023-04-24T08:52:53;9.27;;;4.50;;
9228;SDS011;4649;42.644;23.284;2023-04-24T08:55:20;5.27;;;4.97;;
9228;SDS011;4649;42.644;23.284;2023-04-24T08:57:50;6.23;;;4.83;;
9228;SDS011;4649;42.644;23.284;2023-04-24T09:00:18;5.10;;;4.60;;
9228;SDS011;4649;42.644;23.284;2023-04-24T09:02:46;4.90;;;4.47;;
9228;SDS011;4649;42.644;23.284;2023-04-24T09:05:15;8.60;;;5.17;;
9228;SDS011;4649;42.644;23.284;2023-04-24T09:07:45;6.30;;;5.33;;
9228;SDS011;4649;42.644;23.284;2023-04-24T09:10:16;8.50;;;4.77;;
9228;SDS011;4649;42.644;23.284;2023-04-24T09:12:43;8.30;;;4.73;;
9228;SDS011;4649;42.644;23.284;2023-04-24T09:15:10;5.27;;;4.70;;
9228;SDS011;4649;42.644;23.284;2023-04-24T09:17:38;6.27;;;4.37;;
9228;SDS011;4649;42.644;23.284;2023-04-24T09:20:05;11.50;;;5.00;;
9228;SDS011;4649;42.644;23.284;2023-04-24T09:22:33;7.57;;;4.73;;
9228;SDS011;4649;42.644;23.284;2023-04-24T09:25:03;6.80;;;5.37;;
9228;SDS011;4649;42.644;23.284;2023-04-24T09:27:31;14.57;;;5.60;;
9228;SDS011;4649;42.644;23.284;2023-04-24T09:29:59;5.13;;;4.00;;
9228;SDS011;4649;42.644;23.284;2023-04-24T09:32:26;11.37;;;4.47;;
9228;SDS011;4649;42.644;23.284;2023-04-24T09:35:07;7.40;;;4.40;;
9228;SDS011;4649;42.644;23.284;2023-04-24T09:37:36;5.13;;;4.70;;
9228;SDS011;4649;42.644;23.284;2023-04-24T09:40:08;7.73;;;4.63;;
9228;SDS011;4649;42.644;23.284;2023-04-24T09:42:39;9.50;;;5.03;;
9228;SDS011;4649;42.644;23.284;2023-04-24T09:45:08;5.50;;;5.00;;
9228;SDS011;4649;42.644;23.284;2023-04-24T09:47:36;5.73;;;5.17;;
9228;SDS011;4649;42.644;23.284;2023-04-24T09:50:09;8.27;;;4.90;;
9228;SDS011;4649;42.644;23.284;2023-04-24T09:52:39;5.40;;;4.60;;
9228;SDS011;4649;42.644;23.284;2023-04-24T09:55:11;6.03;;;4.53;;
9228;SDS011;4649;42.644;23.284;2023-04-24T09:57:48;5.00;;;4.53;;
9228;SDS011;4649;42.644;23.284;2023-04-24T10:00:23;6.97;;;4.10;;
9228;SDS011;4649;42.644;23.284;2023-04-24T10:02:58;5.77;;;3.83;;
9228;SDS011;4649;42.644;23.284;2023-04-24T10:05:27;8.67;;;4.50;;
9228;SDS011;4649;42.644;23.284;2023-04-24T10:07:56;5.60;;;4.13;;
9228;SDS011;4649;42.644;23.284;2023-04-24T10:10:25;5.47;;;3.20;;
9228;SDS011;4649;42.644;23.284;2023-04-24T10:12:52;4.00;;;3.60;;
9228;SDS011;4649;42.644;23.284;2023-04-24T10:15:21;4.23;;;3.93;;
9228;SDS011;4649;42.644;23.284;2023-04-24T10:17:49;4.10;;;3.90;;
9228;SDS011;4649;42.644;23.284;2023-04-24T10:20:19;7.00;;;4.17;;
9228;SDS011;4649;42.644;23.284;2023-04-24T10:22:48;5.60;;;3.73;;
9228;SDS011;4649;42.644;23.284;2023-04-24T10:25:18;5.73;;;3.60;;
9228;SDS011;4649;42.644;23.284;2023-04-24T10:27:48;4.17;;;3.80;;
9228;SDS011;4649;42.644;23.284;2023-04-24T10:30:16;3.70;;;3.40;;
9228;SDS011;4649;42.644;23.284;2023-04-24T10:32:43;6.23;;;3.70;;
9228;SDS011;4649;42.644;23.284;2023-04-24T10:35:10;3.73;;;3.43;;
9228;SDS011;4649;42.644;23.284;2023-04-24T10:37:40;3.50;;;3.30;;
9228;SDS011;4649;42.644;23.284;2023-04-24T10:40:09;4.10;;;3.80;;
9228;SDS011;4649;42.644;23.284;2023-04-24T10:42:39;4.40;;;4.00;;
9228;SDS011;4649;42.644;23.284;2023-04-24T10:45:17;4.73;;;3.87;;
9228;SDS011;4649;42.644;23.284;2023-04-24T10:50:42;2.90;;;2.70;;
9228;SDS011;4649;42.644;23.284;2023-04-24T10:53:13;12.27;;;3.17;;
9228;SDS011;4649;42.644;23.284;2023-04-24T10:55:43;3.50;;;3.10;;
9228;SDS011;4649;42.644;23.284;2023-04-24T10:58:11;3.57;;;3.30;;
9228;SDS011;4649;42.644;23.284;2023-04-24T11:00:41;5.70;;;3.20;;
9228;SDS011;4649;42.644;23.284;2023-04-24T11:03:22;8.20;;;3.00;;
9228;SDS011;4649;42.644;23.284;2023-04-24T11:05:55;3.80;;;2.57;;
9228;SDS011;4649;42.644;23.284;2023-04-24T11:08:24;4.87;;;2.53;;
9228;SDS011;4649;42.644;23.284;2023-04-24T11:10:56;3.90;;;2.97;;
9228;SDS011;4649;42.644;23.284;2023-04-24T11:13:25;6.23;;;3.60;;
9228;SDS011;4649;42.644;23.284;2023-04-24T11:18:49;3.30;;;3.10;;
9228;SDS011;4649;42.644;23.284;2023-04-24T11:21:19;3.20;;;3.00;;
9228;SDS011;4649;42.644;23.284;2023-04-24T11:23:46;11.50;;;2.60;;
9228;SDS011;4649;42.644;23.284;2023-04-24T11:26:17;1.93;;;1.83;;
9228;SDS011;4649;42.644;23.284;2023-04-24T11:28:48;2.43;;;1.93;;
9228;SDS011;4649;42.644;23.284;2023-04-24T11:31:40;2.20;;;2.10;;
9228;SDS011;4649;42.644;23.284;2023-04-24T11:34:08;2.90;;;2.70;;
9228;SDS011;4649;42.644;23.284;2023-04-24T11:36:36;3.67;;;2.20;;
9228;SDS011;4649;42.644;23.284;2023-04-24T11:39:03;2.40;;;2.30;;
9228;SDS011;4649;42.644;23.284;2023-04-24T11:41:30;2.63;;;2.53;;
9228;SDS011;4649;42.644;23.284;2023-04-24T11:43:57;3.47;;;2.43;;
9228;SDS011;4649;42.644;23.284;2023-04-24T11:46:26;4.93;;;3.77;;
9228;SDS011;4649;42.644;23.284;2023-04-24T11:48:56;4.70;;;4.20;;
9228;SDS011;4649;42.644;23.284;2023-04-24T11:51:23;3.50;;;3.20;;
9228;SDS011;4649;42.644;23.284;2023-04-24T11:53:50;14.53;;;3.80;;
9228;SDS011;4649;42.644;23.284;2023-04-24T11:56:18;3.10;;;2.83;;
9228;SDS011;4649;42.644;23.284;2023-04-24T11:58:45;2.97;;;2.83;;
9228;SDS011;4649;42.644;23.284;2023-04-24T12:01:12;2.30;;;2.20;;
9228;SDS011;4649;42.644;23.284;2023-04-24T12:03:40;2.33;;;2.23;;
9228;SDS011;4649;42.644;23.284;2023-04-24T12:06:11;2.43;;;2.23;;
9228;SDS011;4649;42.644;23.284;2023-04-24T12:08:39;2.60;;;2.50;;
9228;SDS011;4649;42.644;23.284;2023-04-24T12:11:06;2.87;;;2.77;;
9228;SDS011;4649;42.644;23.284;2023-04-24T12:13:34;3.13;;;2.93;;
9228;SDS011;4649;42.644;23.284;2023-04-24T12:16:01;2.80;;;2.70;;
9228;SDS011;4649;42.644;23.284;2023-04-24T12:18:29;2.77;;;2.67;;
9228;SDS011;4649;42.644;23.284;2023-04-24T12:23:42;2.13;;;2.03;;
9228;SDS011;4649;42.644;23.284;2023-04-24T12:26:09;2.77;;;2.60;;
9228;SDS011;4649;42.644;23.284;2023-04-24T12:28:38;2.40;;;2.30;;
9228;SDS011;4649;42.644;23.284;2023-04-24T12:31:06;2.47;;;2.37;;
9228;SDS011;4649;42.644;23.284;2023-04-24T12:33:33;2.70;;;2.60;;
9228;SDS011;4649;42.644;23.284;2023-04-24T12:36:01;3.00;;;2.57;;
9228;SDS011;4649;42.644;23.284;2023-04-24T12:38:30;2.40;;;2.30;;
9228;SDS011;4649;42.644;23.284;2023-04-24T12:41:05;2.87;;;2.77;;
9228;SDS011;4649;42.644;23.284;2023-04-24T12:43:33;3.30;;;3.00;;
9228;SDS011;4649;42.644;23.284;2023-04-24T12:46:00;5.13;;;3.13;;
9228;SDS011;4649;42.644;23.284;2023-04-24T12:48:28;3.10;;;2.90;;
9228;SDS011;4649;42.644;23.284;2023-04-24T12:50:56;2.63;;;2.53;;
9228;SDS011;4649;42.644;23.284;2023-04-24T12:53:26;3.00;;;2.80;;
9228;SDS011;4649;42.644;23.284;2023-04-24T12:55:55;2.90;;;2.80;;
9228;SDS011;4649;42.644;23.284;2023-04-24T12:58:22;6.00;;;2.90;;
9228;SDS011;4649;42.644;23.284;2023-04-24T13:00:49;2.87;;;2.60;;
9228;SDS011;4649;42.644;23.284;2023-04-24T13:03:16;2.77;;;2.67;;
9228;SDS011;4649;42.644;23.284;2023-04-24T13:05:44;4.33;;;2.80;;
9228;SDS011;4649;42.644;23.284;2023-04-24T13:08:10;2.80;;;2.70;;
9228;SDS011;4649;42.644;23.284;2023-04-24T13:10:38;2.60;;;2.40;;
9228;SDS011;4649;42.644;23.284;2023-04-24T13:13:07;2.30;;;2.20;;
9228;SDS011;4649;42.644;23.284;2023-04-24T13:15:34;2.70;;;2.60;;
9228;SDS011;4649;42.644;23.284;2023-04-24T13:18:01;2.97;;;2.77;;
9228;SDS011;4649;42.644;23.284;2023-04-24T13:20:28;2.63;;;2.53;;
9228;SDS011;4649;42.644;23.284;2023-04-24T13:22:55;2.80;;;2.60;;
9228;SDS011;4649;42.644;23.284;2023-04-24T13:25:22;3.87;;;2.40;;
9228;SDS011;4649;42.644;23.284;2023-04-24T13:27:50;2.60;;;2.40;;
9228;SDS011;4649;42.644;23.284;2023-04-24T13:30:18;2.83;;;2.37;;
9228;SDS011;4649;42.644;23.284;2023-04-24T13:32:45;4.10;;;2.63;;
9228;SDS011;4649;42.644;23.284;2023-04-24T13:35:11;3.10;;;2.90;;
9228;SDS011;4649;42.644;23.284;2023-04-24T13:37:38;4.63;;;2.10;;
9228;SDS011;4649;42.644;23.284;2023-04-24T13:40:05;2.53;;;2.37;;
9228;SDS011;4649;42.644;23.284;2023-04-24T13:42:33;7.80;;;2.60;;
9228;SDS011;4649;42.644;23.284;2023-04-24T13:45:00;4.73;;;2.30;;
9228;SDS011;4649;42.644;23.284;2023-04-24T13:47:28;3.47;;;2.23;;
9228;SDS011;4649;42.644;23.284;2023-04-24T13:49:55;2.50;;;2.37;;
9228;SDS011;4649;42.644;23.284;2023-04-24T13:52:22;2.43;;;2.23;;
9228;SDS011;4649;42.644;23.284;2023-04-24T13:54:48;3.53;;;2.17;;
9228;SDS011;4649;42.644;23.284;2023-04-24T13:57:15;3.27;;;2.20;;
9228;SDS011;4649;42.644;23.284;2023-04-24T13:59:42;3.67;;;2.20;;
9228;SDS011;4649;42.644;23.284;2023-04-24T14:02:10;4.73;;;2.27;;
9228;SDS011;4649;42.644;23.284;2023-04-24T14:04:38;2.23;;;2.13;;
9228;SDS011;4649;42.644;23.284;2023-04-24T14:10:04;2.03;;;1.97;;
9228;SDS011;4649;42.644;23.284;2023-04-24T14:12:32;3.17;;;2.50;;
9228;SDS011;4649;42.644;23.284;2023-04-24T14:14:58;3.40;;;2.27;;
9228;SDS011;4649;42.644;23.284;2023-04-24T14:17:26;2.50;;;2.30;;
9228;SDS011;4649;42.644;23.284;2023-04-24T14:19:55;3.07;;;2.87;;
9228;SDS011;4649;42.644;23.284;2023-04-24T14:22:22;6.13;;;2.53;;
9228;SDS011;4649;42.644;23.284;2023-04-24T14:24:48;2.33;;;2.23;;
9228;SDS011;4649;42.644;23.284;2023-04-24T14:27:15;1.93;;;1.83;;
9228;SDS011;4649;42.644;23.284;2023-04-24T14:29:42;4.50;;;2.33;;
9228;SDS011;4649;42.644;23.284;2023-04-24T14:32:10;4.13;;;2.60;;
9228;SDS011;4649;42.644;23.284;2023-04-24T14:34:39;2.77;;;2.57;;
9228;SDS011;4649;42.644;23.284;2023-04-24T14:37:08;2.83;;;2.57;;
9228;SDS011;4649;42.644;23.284;2023-04-24T14:39:35;4.27;;;2.50;;
9228;SDS011;4649;42.644;23.284;2023-04-24T14:42:01;3.63;;;2.80;;
9228;SDS011;4649;42.644;23.284;2023-04-24T14:44:28;3.85;;;2.70;;
9228;SDS011;4649;42.644;23.284;2023-04-24T14:46:55;2.57;;;2.17;;
9228;SDS011;4649;42.644;23.284;2023-04-24T14:49:22;6.20;;;2.57;;
9228;SDS011;4649;42.644;23.284;2023-04-24T14:51:50;2.63;;;2.50;;
9228;SDS011;4649;42.644;23.284;2023-04-24T14:54:18;3.10;;;2.80;;
9228;SDS011;4649;42.644;23.284;2023-04-24T14:56:48;2.60;;;2.40;;
9228;SDS011;4649;42.644;23.284;2023-04-24T14:59:15;2.50;;;2.40;;
9228;SDS011;4649;42.644;23.284;2023-04-24T15:01:42;3.17;;;2.93;;
9228;SDS011;4649;42.644;23.284;2023-04-24T15:04:08;3.10;;;2.90;;
9228;SDS011;4649;42.644;23.284;2023-04-24T15:06:35;2.97;;;2.87;;
9228;SDS011;4649;42.644;23.284;2023-04-24T15:09:02;2.90;;;2.70;;
9228;SDS011;4649;42.644;23.284;2023-04-24T15:11:30;2.90;;;2.80;;
9228;SDS011;4649;42.644;23.284;2023-04-24T15:13:58;3.20;;;3.00;;
9228;SDS011;4649;42.644;23.284;2023-04-24T15:16:24;6.80;;;5.90;;
9228;SDS011;4649;42.644;23.284;2023-04-24T15:18:52;3.17;;;3.03;;
9228;SDS011;4649;42.644;23.284;2023-04-24T15:21:18;5.27;;;3.80;;
9228;SDS011;4649;42.644;23.284;2023-04-24T15:23:45;5.23;;;3.03;;
9228;SDS011;4649;42.644;23.284;2023-04-24T15:26:12;4.30;;;3.20;;
9228;SDS011;4649;42.644;23.284;2023-04-24T15:28:40;3.57;;;2.80;;
9228;SDS011;4649;42.644;23.284;2023-04-24T15:31:07;3.83;;;3.40;;
9228;SDS011;4649;42.644;23.284;2023-04-24T15:33:34;3.43;;;3.17;;
9228;SDS011;4649;42.644;23.284;2023-04-24T15:36:01;3.87;;;3.10;;
9228;SDS011;4649;42.644;23.284;2023-04-24T15:38:27;4.07;;;3.77;;
9228;SDS011;4649;42.644;23.284;2023-04-24T15:40:54;3.93;;;3.20;;
9228;SDS011;4649;42.644;23.284;2023-04-24T15:43:21;3.40;;;3.20;;
9228;SDS011;4649;42.644;23.284;2023-04-24T15:45:50;5.27;;;3.90;;
9228;SDS011;4649;42.644;23.284;2023-04-24T15:48:17;4.30;;;4.00;;
9228;SDS011;4649;42.644;23.284;2023-04-24T15:50:44;4.20;;;3.77;;
9228;SDS011;4649;42.644;23.284;2023-04-24T15:53:11;5.53;;;3.40;;
9228;SDS011;4649;42.644;23.284;2023-04-24T15:55:38;3.90;;;3.50;;
9228;SDS011;4649;42.644;23.284;2023-04-24T15:58:05;5.40;;;3.60;;
9228;SDS011;4649;42.644;23.284;2023-04-24T16:00:32;4.30;;;3.90;;
9228;SDS011;4649;42.644;23.284;2023-04-24T16:03:01;12.17;;;4.30;;
9228;SDS011;4649;42.644;23.284;2023-04-24T16:05:27;5.37;;;4.43;;
9228;SDS011;4649;42.644;23.284;2023-04-24T16:07:55;4.93;;;4.63;;
9228;SDS011;4649;42.644;23.284;2023-04-24T16:10:22;7.50;;;4.40;;
9228;SDS011;4649;42.644;23.284;2023-04-24T16:12:49;5.17;;;4.70;;
9228;SDS011;4649;42.644;23.284;2023-04-24T16:15:17;4.47;;;4.07;;
9228;SDS011;4649;42.644;23.284;2023-04-24T16:17:44;8.87;;;4.63;;
9228;SDS011;4649;42.644;23.284;2023-04-24T16:23:01;12.97;;;6.93;;
9228;SDS011;4649;42.644;23.284;2023-04-24T16:26:31;15.07;;;6.60;;
9228;SDS011;4649;42.644;23.284;2023-04-24T16:29:39;6.70;;;5.67;;
9228;SDS011;4649;42.644;23.284;2023-04-24T16:33:11;5.90;;;5.50;;
9228;SDS011;4649;42.644;23.284;2023-04-24T16:42:06;6.10;;;5.70;;
9228;SDS011;4649;42.644;23.284;2023-04-24T16:53:47;5.60;;;5.20;;
9228;SDS011;4649;42.644;23.284;2023-04-24T17:46:10;6.97;;;6.43;;
9228;SDS011;4649;42.644;23.284;2023-04-24T17:48:41;6.50;;;6.20;;
9228;SDS011;4649;42.644;23.284;2023-04-24T17:51:24;7.00;;;6.60;;
9228;SDS011;4649;42.644;23.284;2023-04-24T17:57:37;6.10;;;5.70;;
9228;SDS011;4649;42.644;23.284;2023-04-24T18:00:53;8.57;;;6.87;;
9228;SDS011;4649;42.644;23.284;2023-04-24T18:16:48;6.80;;;2.20;;
9228;SDS011;4649;42.644;23.284;2023-04-24T18:19:33;2.30;;;2.20;;
9228;SDS011;4649;42.644;23.284;2023-04-24T18:25:55;5.13;;;3.83;;
9228;SDS011;4649;42.644;23.284;2023-04-24T18:28:26;3.10;;;2.90;;
9228;SDS011;4649;42.644;23.284;2023-04-24T18:31:30;3.20;;;2.60;;
9228;SDS011;4649;42.644;23.284;2023-04-24T18:34:10;3.00;;;2.90;;
9228;SDS011;4649;42.644;23.284;2023-04-24T18:37:22;3.37;;;3.27;;
9228;SDS011;4649;42.644;23.284;2023-04-24T18:40:13;5.80;;;5.07;;
9228;SDS011;4649;42.644;23.284;2023-04-24T18:45:48;6.73;;;5.97;;
9228;SDS011;4649;42.644;23.284;2023-04-24T18:48:21;6.20;;;5.80;;
9228;SDS011;4649;42.644;23.284;2023-04-24T18:50:49;6.20;;;5.70;;
9228;SDS011;4649;42.644;23.284;2023-04-24T18:53:25;5.63;;;5.33;;
9228;SDS011;4649;42.644;23.284;2023-04-24T18:55:56;2.50;;;2.40;;
9228;SDS011;4649;42.644;23.284;2023-04-24T18:58:42;4.10;;;3.90;;
9228;SDS011;4649;42.644;23.284;2023-04-24T19:01:10;4.63;;;4.43;;
9228;SDS011;4649;42.644;23.284;2023-04-24T19:03:43;4.73;;;4.43;;
9228;SDS011;4649;42.644;23.284;2023-04-24T19:06:30;1.03;;;1.00;;
9228;SDS011;4649;42.644;23.284;2023-04-24T19:09:19;0.60;;;0.60;;
9228;SDS011;4649;42.644;23.284;2023-04-24T19:22:05;1.23;;;1.23;;
9228;SDS011;4649;42.644;23.284;2023-04-24T19:27:58;2.90;;;2.80;;
9228;SDS011;4649;42.644;23.284;2023-04-24T19:30:29;4.50;;;4.10;;
9228;SDS011;4649;42.644;23.284;2023-04-24T19:33:06;10.80;;;9.80;;
9228;SDS011;4649;42.644;23.284;2023-04-24T19:35:58;4.40;;;2.97;;
9228;SDS011;4649;42.644;23.284;2023-04-24T19:38:35;2.30;;;2.20;;
9228;SDS011;4649;42.644;23.284;2023-04-24T19:44:14;3.40;;;3.20;;
9228;SDS011;4649;42.644;23.284;2023-04-24T19:47:03;1.60;;;1.37;;
9228;SDS011;4649;42.644;23.284;2023-04-24T19:49:39;0.63;;;0.60;;
9228;SDS011;4649;42.644;23.284;2023-04-24T19:52:13;0.63;;;0.63;;
9228;SDS011;4649;42.644;23.284;2023-04-24T19:54:52;0.87;;;0.70;;
9228;SDS011;4649;42.644;23.284;2023-04-24T19:57:21;0.50;;;0.50;;
9228;SDS011;4649;42.644;23.284;2023-04-24T19:59:52;0.60;;;0.60;;
9228;SDS011;4649;42.644;23.284;2023-04-24T20:02:25;2.03;;;0.87;;
9228;SDS011;4649;42.644;23.284;2023-04-24T20:04:54;0.50;;;0.50;;
9228;SDS011;4649;42.644;23.284;2023-04-24T20:07:23;0.73;;;0.73;;
9228;SDS011;4649;42.644;23.284;2023-04-24T20:09:55;0.50;;;0.50;;
9228;SDS011;4649;42.644;23.284;2023-04-24T20:12:22;0.70;;;0.50;;
9228;SDS011;4649;42.644;23.284;2023-04-24T20:14:52;0.60;;;0.60;;
9228;SDS011;4649;42.644;23.284;2023-04-24T20:17:19;1.97;;;0.70;;
9228;SDS011;4649;42.644;23.284;2023-04-24T20:19:47;0.43;;;0.43;;
9228;SDS011;4649;42.644;23.284;2023-04-24T20:22:15;0.60;;;0.60;;
9228;SDS011;4649;42.644;23.284;2023-04-24T20:24:45;0.80;;;0.80;;
9228;SDS011;4649;42.644;23.284;2023-04-24T20:27:24;0.70;;;0.70;;
9228;SDS011;4649;42.644;23.284;2023-04-24T20:29:55;0.57;;;0.57;;
9228;SDS011;4649;42.644;23.284;2023-04-24T20:32:28;0.40;;;0.40;;
9228;SDS011;4649;42.644;23.284;2023-04-24T20:35:02;0.80;;;0.80;;
9228;SDS011;4649;42.644;23.284;2023-04-24T20:37:40;0.63;;;0.63;;
9228;SDS011;4649;42.644;23.284;2023-04-24T20:40:14;0.90;;;0.90;;
9228;SDS011;4649;42.644;23.284;2023-04-24T20:42:47;0.97;;;0.60;;